This is the latest recevied weather packets stored in our database for station/object IZ3ZOD-13. If no packets are shown the sender has not sent any weather packets the latest 10 day(s).
| Time | Temp. | Humidity | Pressure | Rain* | Wind** | Luminosity | Snow |
|---|---|---|---|---|---|---|---|
| 1777453683 | 20.56° C | 53% | 1017.4 hPa | 0 mm | - | - | - |
| 1777450803 | 20° C | 58% | 1017.2 hPa | 0 mm | - | - | - |
| 1777450563 | 19.44° C | 59% | 1017.5 hPa | 0 mm | - | - | - |
| 1777447444 | 17.78° C | 65% | 1017.2 hPa | 0 mm | - | - | - |
| 1777445763 | 17.78° C | 66% | 1017 hPa | 0 mm | - | - | - |
| 1777444084 | 17.22° C | 70% | 1016.5 hPa | 0 mm | - | - | - |
| 1777443124 | 16.11° C | 73% | 1016.4 hPa | 0 mm | - | - | - |
| 1777440003 | 15° C | 79% | 1016.1 hPa | 0 mm | - | - | - |
| 1777433764 | 14.44° C | 79% | 1016 hPa | 0 mm | - | - | - |
| 1777433284 | 14.44° C | 78% | 1016 hPa | 0 mm | - | - | - |
| 1777431843 | 15° C | 76% | 1015.9 hPa | 0 mm | - | - | - |
| 1777431363 | 15° C | 77% | 1015.9 hPa | 0 mm | - | - | - |
| 1777430403 | 15° C | 76% | 1016 hPa | 0 mm | - | - | - |
| 1777425254 | 15.56° C | 72% | 1015.9 hPa | 0 mm | - | - | - |
| 1777424164 | 16.11° C | 73% | 1015.8 hPa | 0 mm | - | - | - |
| 1777422483 | 15.56° C | 74% | 1016.1 hPa | 0 mm | - | - | - |
| 1777420084 | 16.11° C | 76% | 1016 hPa | 0 mm | - | - | - |
| 1777417203 | 16.11° C | 81% | 1016.2 hPa | 0 mm | - | - | - |
| 1777416723 | 16.11° C | 80% | 1016.1 hPa | 0 mm | - | - | - |
| 1777415283 | 16.11° C | 80% | 1016.1 hPa | 0 mm | - | - | - |
| 1777412883 | 16.67° C | 81% | 1015.9 hPa | 0 mm | - | - | - |
| 1777412403 | 16.67° C | 80% | 1016 hPa | 0 mm | - | - | - |
| 1777411923 | 16.67° C | 79% | 1016.1 hPa | 0 mm | - | - | - |
| 1777410484 | 16.67° C | 75% | 1015.8 hPa | 0 mm | - | - | - |
| 1777408803 | 16.67° C | 75% | 1015.8 hPa | 0 mm | - | - | - |
* Rain latest hour (hover to see other rain measurements)
** Current wind speed in m/s (hover to see current wind gust speed)